sensor_id;sensor_type;location;lat;lon;timestamp;pressure;altitude;pressure_sealevel;temperature;humidity
19751;BME280;4663;49.120;9.730;2022-07-25T00:00:37;97879.25;;;16.32;87.28
19751;BME280;4663;49.120;9.730;2022-07-25T00:03:03;97873.81;;;16.32;87.54
19751;BME280;4663;49.120;9.730;2022-07-25T00:05:29;97868.81;;;16.28;87.70
19751;BME280;4663;49.120;9.730;2022-07-25T00:07:54;97868.31;;;16.20;88.48
19751;BME280;4663;49.120;9.730;2022-07-25T00:10:20;97864.34;;;16.15;88.95
19751;BME280;4663;49.120;9.730;2022-07-25T00:12:45;97849.00;;;16.02;88.53
19751;BME280;4663;49.120;9.730;2022-07-25T00:15:11;97859.13;;;15.95;90.21
19751;BME280;4663;49.120;9.730;2022-07-25T00:17:37;97860.34;;;15.99;89.52
19751;BME280;4663;49.120;9.730;2022-07-25T00:20:03;97854.47;;;16.02;90.00
19751;BME280;4663;49.120;9.730;2022-07-25T00:22:28;97852.72;;;16.08;88.22
19751;BME280;4663;49.120;9.730;2022-07-25T00:24:54;97854.81;;;16.06;88.46
19751;BME280;4663;49.120;9.730;2022-07-25T00:27:19;97852.31;;;16.04;88.45
19751;BME280;4663;49.120;9.730;2022-07-25T00:29:45;97852.19;;;15.99;88.49
19751;BME280;4663;49.120;9.730;2022-07-25T00:32:11;97846.59;;;15.94;89.00
19751;BME280;4663;49.120;9.730;2022-07-25T00:34:36;97849.34;;;15.69;89.57
19751;BME280;4663;49.120;9.730;2022-07-25T00:37:02;97847.78;;;15.79;89.85
19751;BME280;4663;49.120;9.730;2022-07-25T00:39:27;97849.31;;;15.94;89.44
19751;BME280;4663;49.120;9.730;2022-07-25T00:41:52;97843.41;;;15.78;89.96
19751;BME280;4663;49.120;9.730;2022-07-25T00:44:26;97841.91;;;15.83;90.03
19751;BME280;4663;49.120;9.730;2022-07-25T00:46:52;97843.69;;;15.89;89.71
19751;BME280;4663;49.120;9.730;2022-07-25T00:49:17;97843.63;;;15.77;89.57
19751;BME280;4663;49.120;9.730;2022-07-25T00:51:44;97855.09;;;15.79;89.95
19751;BME280;4663;49.120;9.730;2022-07-25T00:54:09;97845.94;;;15.73;89.93
19751;BME280;4663;49.120;9.730;2022-07-25T00:56:36;97842.34;;;15.79;90.02
19751;BME280;4663;49.120;9.730;2022-07-25T00:59:02;97836.84;;;15.61;90.63
19751;BME280;4663;49.120;9.730;2022-07-25T01:01:28;97850.41;;;15.42;91.76
19751;BME280;4663;49.120;9.730;2022-07-25T01:03:54;97848.22;;;15.25;91.75
19751;BME280;4663;49.120;9.730;2022-07-25T01:06:20;97847.22;;;15.45;92.19
19751;BME280;4663;49.120;9.730;2022-07-25T01:08:46;97848.22;;;15.25;92.23
19751;BME280;4663;49.120;9.730;2022-07-25T01:11:12;97849.97;;;15.13;93.92
19751;BME280;4663;49.120;9.730;2022-07-25T01:13:38;97842.31;;;15.03;93.16
19751;BME280;4663;49.120;9.730;2022-07-25T01:16:04;97841.44;;;15.09;93.72
19751;BME280;4663;49.120;9.730;2022-07-25T01:18:29;97841.22;;;15.11;92.26
19751;BME280;4663;49.120;9.730;2022-07-25T01:20:54;97841.88;;;15.06;93.30
19751;BME280;4663;49.120;9.730;2022-07-25T01:23:20;97847.06;;;14.82;94.00
19751;BME280;4663;49.120;9.730;2022-07-25T01:25:45;97838.25;;;14.87;93.73
19751;BME280;4663;49.120;9.730;2022-07-25T01:28:11;97835.88;;;14.97;93.88
19751;BME280;4663;49.120;9.730;2022-07-25T01:30:36;97830.94;;;15.13;93.67
19751;BME280;4663;49.120;9.730;2022-07-25T01:33:02;97835.09;;;15.15;92.60
19751;BME280;4663;49.120;9.730;2022-07-25T01:35:27;97835.88;;;14.97;92.33
19751;BME280;4663;49.120;9.730;2022-07-25T01:37:53;97841.72;;;14.94;93.79
19751;BME280;4663;49.120;9.730;2022-07-25T01:40:18;97840.59;;;15.09;92.87
19751;BME280;4663;49.120;9.730;2022-07-25T01:42:43;97836.66;;;15.05;93.04
19751;BME280;4663;49.120;9.730;2022-07-25T01:45:09;97842.78;;;14.93;93.83
19751;BME280;4663;49.120;9.730;2022-07-25T01:47:35;97834.53;;;14.81;94.14
19751;BME280;4663;49.120;9.730;2022-07-25T01:50:01;97839.88;;;14.95;93.99
19751;BME280;4663;49.120;9.730;2022-07-25T01:52:26;97836.13;;;14.89;93.16
19751;BME280;4663;49.120;9.730;2022-07-25T01:54:52;97839.66;;;14.96;93.10
19751;BME280;4663;49.120;9.730;2022-07-25T01:57:17;97842.47;;;14.83;93.12
19751;BME280;4663;49.120;9.730;2022-07-25T01:59:43;97847.91;;;14.83;94.51
19751;BME280;4663;49.120;9.730;2022-07-25T02:02:09;97842.69;;;14.81;94.70
19751;BME280;4663;49.120;9.730;2022-07-25T02:04:35;97824.72;;;14.73;94.26
19751;BME280;4663;49.120;9.730;2022-07-25T02:07:01;97831.59;;;14.83;94.98
19751;BME280;4663;49.120;9.730;2022-07-25T02:09:26;97825.75;;;14.72;95.38
19751;BME280;4663;49.120;9.730;2022-07-25T02:11:52;97822.41;;;14.70;93.69
19751;BME280;4663;49.120;9.730;2022-07-25T02:14:17;97824.09;;;14.78;93.43
19751;BME280;4663;49.120;9.730;2022-07-25T02:16:42;97823.72;;;14.61;94.25
19751;BME280;4663;49.120;9.730;2022-07-25T02:19:08;97824.41;;;14.49;94.36
19751;BME280;4663;49.120;9.730;2022-07-25T02:21:34;97817.94;;;14.50;95.33
19751;BME280;4663;49.120;9.730;2022-07-25T02:23:59;97816.34;;;14.36;95.56
19751;BME280;4663;49.120;9.730;2022-07-25T02:26:24;97805.88;;;14.40;95.97
19751;BME280;4663;49.120;9.730;2022-07-25T02:28:50;97809.22;;;14.42;95.31
19751;BME280;4663;49.120;9.730;2022-07-25T02:31:15;97801.69;;;14.44;96.28
19751;BME280;4663;49.120;9.730;2022-07-25T02:33:41;97808.00;;;14.37;94.78
19751;BME280;4663;49.120;9.730;2022-07-25T02:36:07;97794.66;;;14.29;95.15
19751;BME280;4663;49.120;9.730;2022-07-25T02:38:33;97806.94;;;14.38;95.93
19751;BME280;4663;49.120;9.730;2022-07-25T02:40:59;97800.03;;;14.43;95.43
19751;BME280;4663;49.120;9.730;2022-07-25T02:43:24;97792.47;;;14.52;95.82
19751;BME280;4663;49.120;9.730;2022-07-25T02:45:50;97798.50;;;14.54;95.56
19751;BME280;4663;49.120;9.730;2022-07-25T02:48:15;97788.81;;;14.25;96.17
19751;BME280;4663;49.120;9.730;2022-07-25T02:50:41;97792.59;;;14.24;95.71
19751;BME280;4663;49.120;9.730;2022-07-25T02:53:06;97796.56;;;14.22;96.43
19751;BME280;4663;49.120;9.730;2022-07-25T02:55:32;97785.19;;;13.86;96.71
19751;BME280;4663;49.120;9.730;2022-07-25T02:57:57;97793.09;;;13.88;97.89
19751;BME280;4663;49.120;9.730;2022-07-25T03:00:23;97788.75;;;13.93;97.46
19751;BME280;4663;49.120;9.730;2022-07-25T03:02:49;97772.03;;;13.96;97.26
19751;BME280;4663;49.120;9.730;2022-07-25T03:05:15;97784.38;;;13.79;99.57
19751;BME280;4663;49.120;9.730;2022-07-25T03:07:42;97771.84;;;13.78;98.28
19751;BME280;4663;49.120;9.730;2022-07-25T03:10:09;97769.78;;;13.80;99.03
19751;BME280;4663;49.120;9.730;2022-07-25T03:12:36;97768.09;;;13.79;98.58
19751;BME280;4663;49.120;9.730;2022-07-25T03:15:04;97772.47;;;13.86;97.59
19751;BME280;4663;49.120;9.730;2022-07-25T03:17:30;97776.25;;;13.72;98.88
19751;BME280;4663;49.120;9.730;2022-07-25T03:19:56;97765.19;;;13.73;97.96
19751;BME280;4663;49.120;9.730;2022-07-25T03:22:22;97768.78;;;13.67;98.12
19751;BME280;4663;49.120;9.730;2022-07-25T03:24:48;97773.31;;;13.87;98.34
19751;BME280;4663;49.120;9.730;2022-07-25T03:27:14;97769.78;;;13.80;96.93
19751;BME280;4663;49.120;9.730;2022-07-25T03:29:40;97772.50;;;13.80;98.40
19751;BME280;4663;49.120;9.730;2022-07-25T03:32:05;97771.88;;;13.71;97.80
19751;BME280;4663;49.120;9.730;2022-07-25T03:34:31;97767.44;;;13.83;97.34
19751;BME280;4663;49.120;9.730;2022-07-25T03:36:57;97771.41;;;14.01;97.04
19751;BME280;4663;49.120;9.730;2022-07-25T03:39:22;97763.69;;;13.98;95.95
19751;BME280;4663;49.120;9.730;2022-07-25T03:41:49;97767.81;;;14.07;95.86
19751;BME280;4663;49.120;9.730;2022-07-25T03:44:14;97763.91;;;13.83;97.32
19751;BME280;4663;49.120;9.730;2022-07-25T03:46:40;97767.25;;;13.92;96.77
19751;BME280;4663;49.120;9.730;2022-07-25T03:49:06;97767.44;;;13.83;97.63
19751;BME280;4663;49.120;9.730;2022-07-25T03:51:31;97758.09;;;13.72;98.00
19751;BME280;4663;49.120;9.730;2022-07-25T03:53:56;97757.69;;;13.76;97.86
19751;BME280;4663;49.120;9.730;2022-07-25T03:56:44;97747.25;;;13.72;98.64
19751;BME280;4663;49.120;9.730;2022-07-25T03:59:12;97743.28;;;13.75;97.90
19751;BME280;4663;49.120;9.730;2022-07-25T04:01:37;97745.16;;;13.74;97.62
19751;BME280;4663;49.120;9.730;2022-07-25T04:04:03;97737.19;;;13.93;97.29
19751;BME280;4663;49.120;9.730;2022-07-25T04:06:29;97734.25;;;13.95;96.66
19751;BME280;4663;49.120;9.730;2022-07-25T04:08:55;97743.03;;;13.90;97.15
19751;BME280;4663;49.120;9.730;2022-07-25T04:11:21;97740.97;;;13.92;96.47
19751;BME280;4663;49.120;9.730;2022-07-25T04:13:47;97735.91;;;13.96;97.75
19751;BME280;4663;49.120;9.730;2022-07-25T04:16:12;97729.25;;;13.85;97.46
19751;BME280;4663;49.120;9.730;2022-07-25T04:18:38;97723.78;;;14.05;97.90
19751;BME280;4663;49.120;9.730;2022-07-25T04:21:03;97725.44;;;15.03;96.85
19751;BME280;4663;49.120;9.730;2022-07-25T04:23:29;97720.59;;;15.49;94.72
19751;BME280;4663;49.120;9.730;2022-07-25T04:25:56;97727.84;;;16.30;90.93
19751;BME280;4663;49.120;9.730;2022-07-25T04:28:22;97725.41;;;16.96;86.79
19751;BME280;4663;49.120;9.730;2022-07-25T04:30:48;97715.44;;;15.66;87.99
19751;BME280;4663;49.120;9.730;2022-07-25T04:33:14;97714.50;;;16.41;86.87
19751;BME280;4663;49.120;9.730;2022-07-25T04:35:40;97721.00;;;16.83;85.80
19751;BME280;4663;49.120;9.730;2022-07-25T04:38:05;97715.75;;;18.01;82.79
19751;BME280;4663;49.120;9.730;2022-07-25T04:40:31;97717.31;;;17.96;80.79
19751;BME280;4663;49.120;9.730;2022-07-25T04:42:56;97725.56;;;17.13;83.19
19751;BME280;4663;49.120;9.730;2022-07-25T04:45:22;97721.78;;;16.28;86.75
19751;BME280;4663;49.120;9.730;2022-07-25T04:47:47;97713.84;;;17.36;83.71
19751;BME280;4663;49.120;9.730;2022-07-25T04:50:13;97704.69;;;17.54;81.28
19751;BME280;4663;49.120;9.730;2022-07-25T04:52:39;97706.84;;;17.40;82.39
19751;BME280;4663;49.120;9.730;2022-07-25T04:55:04;97706.13;;;17.21;83.00
19751;BME280;4663;49.120;9.730;2022-07-25T04:57:31;97714.38;;;17.74;82.03
19751;BME280;4663;49.120;9.730;2022-07-25T04:59:57;97708.56;;;18.12;80.01
19751;BME280;4663;49.120;9.730;2022-07-25T05:02:23;97715.69;;;17.71;82.15
19751;BME280;4663;49.120;9.730;2022-07-25T05:04:49;97718.78;;;18.16;81.00
19751;BME280;4663;49.120;9.730;2022-07-25T05:07:14;97711.03;;;17.72;80.78
19751;BME280;4663;49.120;9.730;2022-07-25T05:09:40;97714.56;;;16.65;85.02
19751;BME280;4663;49.120;9.730;2022-07-25T05:12:05;97715.78;;;15.89;87.29
19751;BME280;4663;49.120;9.730;2022-07-25T05:14:31;97709.59;;;16.31;87.29
19751;BME280;4663;49.120;9.730;2022-07-25T05:16:56;97712.16;;;15.95;87.06
19751;BME280;4663;49.120;9.730;2022-07-25T05:19:22;97705.97;;;16.07;87.89
19751;BME280;4663;49.120;9.730;2022-07-25T05:21:47;97701.28;;;15.95;88.35
19751;BME280;4663;49.120;9.730;2022-07-25T05:24:13;97708.84;;;16.97;85.78
19751;BME280;4663;49.120;9.730;2022-07-25T05:26:38;97697.69;;;17.23;83.76
19751;BME280;4663;49.120;9.730;2022-07-25T05:29:04;97697.06;;;17.56;83.04
19751;BME280;4663;49.120;9.730;2022-07-25T05:31:29;97702.75;;;17.67;81.55
19751;BME280;4663;49.120;9.730;2022-07-25T05:33:55;97696.72;;;17.41;82.52
19751;BME280;4663;49.120;9.730;2022-07-25T05:36:20;97694.53;;;18.20;80.72
19751;BME280;4663;49.120;9.730;2022-07-25T05:38:45;97689.66;;;18.68;79.62
19751;BME280;4663;49.120;9.730;2022-07-25T05:41:11;97701.41;;;19.20;79.06
19751;BME280;4663;49.120;9.730;2022-07-25T05:43:36;97694.72;;;19.68;76.92
19751;BME280;4663;49.120;9.730;2022-07-25T05:46:03;97683.31;;;19.76;75.77
19751;BME280;4663;49.120;9.730;2022-07-25T05:48:29;97693.72;;;20.24;74.63
19751;BME280;4663;49.120;9.730;2022-07-25T05:50:55;97695.94;;;20.54;73.56
19751;BME280;4663;49.120;9.730;2022-07-25T05:53:21;97690.75;;;20.86;73.15
19751;BME280;4663;49.120;9.730;2022-07-25T05:55:47;97692.97;;;20.61;74.35
19751;BME280;4663;49.120;9.730;2022-07-25T05:58:13;97689.84;;;20.75;71.90
19751;BME280;4663;49.120;9.730;2022-07-25T06:00:38;97698.31;;;20.46;73.69
19751;BME280;4663;49.120;9.730;2022-07-25T06:03:04;97696.56;;;20.34;73.97
19751;BME280;4663;49.120;9.730;2022-07-25T06:05:29;97685.38;;;21.45;71.83
19751;BME280;4663;49.120;9.730;2022-07-25T06:07:55;97684.13;;;20.54;72.20
19751;BME280;4663;49.120;9.730;2022-07-25T06:10:21;97685.50;;;20.24;73.41
19751;BME280;4663;49.120;9.730;2022-07-25T06:12:47;97670.47;;;20.92;72.20
19751;BME280;4663;49.120;9.730;2022-07-25T06:15:12;97678.88;;;20.47;73.40
19751;BME280;4663;49.120;9.730;2022-07-25T06:17:38;97684.38;;;20.20;73.50
19751;BME280;4663;49.120;9.730;2022-07-25T06:20:04;97669.09;;;20.89;71.88
19751;BME280;4663;49.120;9.730;2022-07-25T06:22:29;97671.44;;;22.41;68.42
19751;BME280;4663;49.120;9.730;2022-07-25T06:24:55;97668.66;;;22.20;67.29
19751;BME280;4663;49.120;9.730;2022-07-25T06:27:21;97670.81;;;23.54;66.13
19751;BME280;4663;49.120;9.730;2022-07-25T06:29:46;97670.94;;;23.94;65.22
19751;BME280;4663;49.120;9.730;2022-07-25T06:32:11;97661.41;;;24.66;62.65
19751;BME280;4663;49.120;9.730;2022-07-25T06:34:37;97662.06;;;25.17;61.61
19751;BME280;4663;49.120;9.730;2022-07-25T06:37:03;97665.06;;;25.45;60.80
19751;BME280;4663;49.120;9.730;2022-07-25T06:39:28;97675.59;;;25.13;62.37
19751;BME280;4663;49.120;9.730;2022-07-25T06:41:54;97663.59;;;25.77;60.56
19751;BME280;4663;49.120;9.730;2022-07-25T06:44:19;97650.44;;;25.69;59.18
19751;BME280;4663;49.120;9.730;2022-07-25T06:46:45;97652.97;;;26.28;60.88
19751;BME280;4663;49.120;9.730;2022-07-25T06:49:10;97658.59;;;27.09;58.69
19751;BME280;4663;49.120;9.730;2022-07-25T06:51:35;97656.09;;;26.41;59.99
19751;BME280;4663;49.120;9.730;2022-07-25T06:54:01;97656.66;;;27.10;58.85
19751;BME280;4663;49.120;9.730;2022-07-25T06:56:26;97641.38;;;27.54;57.91
19751;BME280;4663;49.120;9.730;2022-07-25T06:58:56;97638.31;;;27.56;57.02
19751;BME280;4663;49.120;9.730;2022-07-25T07:01:21;97640.00;;;26.96;57.85
19751;BME280;4663;49.120;9.730;2022-07-25T07:03:47;97639.41;;;27.97;58.17
19751;BME280;4663;49.120;9.730;2022-07-25T07:06:12;97631.41;;;28.55;56.54
19751;BME280;4663;49.120;9.730;2022-07-25T07:08:38;97625.16;;;27.62;57.13
19751;BME280;4663;49.120;9.730;2022-07-25T07:11:04;97634.09;;;27.44;58.11
19751;BME280;4663;49.120;9.730;2022-07-25T07:13:30;97627.44;;;28.70;56.67
19751;BME280;4663;49.120;9.730;2022-07-25T07:15:55;97633.53;;;28.72;56.29
19751;BME280;4663;49.120;9.730;2022-07-25T07:18:24;97630.72;;;29.27;55.41
19751;BME280;4663;49.120;9.730;2022-07-25T07:20:50;97622.34;;;29.68;54.07
19751;BME280;4663;49.120;9.730;2022-07-25T07:23:16;97605.38;;;28.05;54.66
19751;BME280;4663;49.120;9.730;2022-07-25T07:25:42;97607.19;;;27.87;57.05
19751;BME280;4663;49.120;9.730;2022-07-25T07:28:07;97618.69;;;26.63;57.74
19751;BME280;4663;49.120;9.730;2022-07-25T07:30:33;97624.38;;;27.47;59.49
19751;BME280;4663;49.120;9.730;2022-07-25T07:32:59;97617.97;;;27.89;59.12
19751;BME280;4663;49.120;9.730;2022-07-25T07:35:24;97605.84;;;27.84;56.32
19751;BME280;4663;49.120;9.730;2022-07-25T07:37:50;97608.75;;;27.79;58.42
19751;BME280;4663;49.120;9.730;2022-07-25T07:40:16;97608.75;;;29.17;56.09
19751;BME280;4663;49.120;9.730;2022-07-25T07:42:46;97611.50;;;29.57;55.83
19751;BME280;4663;49.120;9.730;2022-07-25T07:45:16;97608.63;;;29.80;53.75
19751;BME280;4663;49.120;9.730;2022-07-25T07:47:43;97604.34;;;30.80;52.87
19751;BME280;4663;49.120;9.730;2022-07-25T07:50:10;97611.38;;;31.34;51.76
19751;BME280;4663;49.120;9.730;2022-07-25T07:52:37;97597.38;;;30.12;52.94
19751;BME280;4663;49.120;9.730;2022-07-25T07:55:02;97588.38;;;30.42;52.18
19751;BME280;4663;49.120;9.730;2022-07-25T07:57:46;97605.88;;;31.16;53.30
19751;BME280;4663;49.120;9.730;2022-07-25T08:00:13;97602.25;;;31.55;53.01
19751;BME280;4663;49.120;9.730;2022-07-25T08:02:43;97583.25;;;32.00;51.25
19751;BME280;4663;49.120;9.730;2022-07-25T08:05:09;97598.19;;;32.38;51.81
19751;BME280;4663;49.120;9.730;2022-07-25T08:07:34;97592.56;;;32.93;50.81
19751;BME280;4663;49.120;9.730;2022-07-25T08:10:00;97585.53;;;33.45;50.23
19751;BME280;4663;49.120;9.730;2022-07-25T08:12:25;97585.50;;;33.20;49.94
19751;BME280;4663;49.120;9.730;2022-07-25T08:14:51;97586.94;;;32.47;50.81
19751;BME280;4663;49.120;9.730;2022-07-25T08:17:16;97577.13;;;33.08;49.83
19751;BME280;4663;49.120;9.730;2022-07-25T08:19:41;97582.13;;;33.27;49.93
19751;BME280;4663;49.120;9.730;2022-07-25T08:22:07;97587.88;;;32.72;51.02
19751;BME280;4663;49.120;9.730;2022-07-25T08:24:32;97574.88;;;33.01;50.40
19751;BME280;4663;49.120;9.730;2022-07-25T08:26:58;97573.50;;;33.20;49.48
19751;BME280;4663;49.120;9.730;2022-07-25T08:29:23;97572.03;;;32.76;50.20
19751;BME280;4663;49.120;9.730;2022-07-25T08:31:48;97564.63;;;32.93;49.47
19751;BME280;4663;49.120;9.730;2022-07-25T08:34:14;97562.03;;;32.63;49.36
19751;BME280;4663;49.120;9.730;2022-07-25T08:36:39;97568.28;;;33.06;49.32
19751;BME280;4663;49.120;9.730;2022-07-25T08:39:05;97567.91;;;33.70;48.24
19751;BME280;4663;49.120;9.730;2022-07-25T08:41:32;97545.19;;;33.34;47.12
19751;BME280;4663;49.120;9.730;2022-07-25T08:43:58;97554.53;;;33.26;48.54
19751;BME280;4663;49.120;9.730;2022-07-25T08:46:24;97559.19;;;34.29;47.26
19751;BME280;4663;49.120;9.730;2022-07-25T08:48:50;97538.91;;;32.87;47.14
19751;BME280;4663;49.120;9.730;2022-07-25T08:51:16;97556.31;;;33.96;46.92
19751;BME280;4663;49.120;9.730;2022-07-25T08:53:43;97550.44;;;34.30;46.81
19751;BME280;4663;49.120;9.730;2022-07-25T08:56:09;97526.66;;;34.08;45.44
19751;BME280;4663;49.120;9.730;2022-07-25T08:58:34;97549.97;;;34.28;45.68
19751;BME280;4663;49.120;9.730;2022-07-25T09:01:00;97528.72;;;33.82;44.67
19751;BME280;4663;49.120;9.730;2022-07-25T09:03:26;97556.41;;;34.73;45.58
19751;BME280;4663;49.120;9.730;2022-07-25T09:05:51;97534.88;;;34.45;44.27
19751;BME280;4663;49.120;9.730;2022-07-25T09:08:17;97554.69;;;35.17;45.17
19751;BME280;4663;49.120;9.730;2022-07-25T09:10:50;97529.19;;;34.42;44.14
19751;BME280;4663;49.120;9.730;2022-07-25T09:13:18;97540.94;;;34.64;44.96
19751;BME280;4663;49.120;9.730;2022-07-25T09:18:16;97551.63;;;34.74;44.96
19751;BME280;4663;49.120;9.730;2022-07-25T09:20:56;97551.41;;;35.47;43.91
19751;BME280;4663;49.120;9.730;2022-07-25T09:26:12;97537.03;;;34.07;44.67
19751;BME280;4663;49.120;9.730;2022-07-25T09:28:43;97531.00;;;34.50;44.79
19751;BME280;4663;49.120;9.730;2022-07-25T09:31:09;97523.31;;;32.74;45.33
19751;BME280;4663;49.120;9.730;2022-07-25T09:33:50;97518.44;;;32.37;45.38
19751;BME280;4663;49.120;9.730;2022-07-25T09:36:16;97542.69;;;33.82;46.13
19751;BME280;4663;49.120;9.730;2022-07-25T09:39:10;97526.16;;;34.63;43.78
19751;BME280;4663;49.120;9.730;2022-07-25T09:41:38;97523.50;;;34.09;44.23
19751;BME280;4663;49.120;9.730;2022-07-25T09:46:42;97529.47;;;32.67;45.55
19751;BME280;4663;49.120;9.730;2022-07-25T09:49:08;97530.69;;;33.82;45.39
19751;BME280;4663;49.120;9.730;2022-07-25T09:51:34;97520.25;;;33.66;44.54
19751;BME280;4663;49.120;9.730;2022-07-25T09:54:02;97517.16;;;34.13;43.94
19751;BME280;4663;49.120;9.730;2022-07-25T09:56:27;97520.53;;;34.18;43.77
19751;BME280;4663;49.120;9.730;2022-07-25T09:58:52;97510.06;;;33.20;43.71
19751;BME280;4663;49.120;9.730;2022-07-25T10:01:21;97536.28;;;33.82;44.81
19751;BME280;4663;49.120;9.730;2022-07-25T10:03:51;97526.25;;;33.81;45.05
19751;BME280;4663;49.120;9.730;2022-07-25T10:06:27;97526.56;;;33.51;44.46
19751;BME280;4663;49.120;9.730;2022-07-25T10:08:55;97530.63;;;34.07;44.72
19751;BME280;4663;49.120;9.730;2022-07-25T10:11:23;97504.69;;;32.90;44.70
19751;BME280;4663;49.120;9.730;2022-07-25T10:13:50;97516.59;;;33.00;44.89
19751;BME280;4663;49.120;9.730;2022-07-25T10:16:26;97516.47;;;34.16;44.09
19751;BME280;4663;49.120;9.730;2022-07-25T10:18:56;97506.78;;;34.58;43.08
19751;BME280;4663;49.120;9.730;2022-07-25T10:21:25;97506.22;;;33.91;43.80
19751;BME280;4663;49.120;9.730;2022-07-25T10:24:05;97494.66;;;33.39;43.40
19751;BME280;4663;49.120;9.730;2022-07-25T10:26:33;97501.88;;;33.53;43.49
19751;BME280;4663;49.120;9.730;2022-07-25T10:29:07;97495.63;;;33.43;43.62
19751;BME280;4663;49.120;9.730;2022-07-25T10:31:40;97508.28;;;33.53;43.72
19751;BME280;4663;49.120;9.730;2022-07-25T10:34:11;97490.41;;;33.70;42.61
19751;BME280;4663;49.120;9.730;2022-07-25T10:36:49;97490.09;;;34.01;42.60
19751;BME280;4663;49.120;9.730;2022-07-25T10:39:17;97508.91;;;33.75;43.89
19751;BME280;4663;49.120;9.730;2022-07-25T10:41:53;97498.44;;;33.72;43.67
19751;BME280;4663;49.120;9.730;2022-07-25T10:44:18;97475.53;;;31.52;45.27
19751;BME280;4663;49.120;9.730;2022-07-25T10:46:44;97470.78;;;31.32;46.06
19751;BME280;4663;49.120;9.730;2022-07-25T10:49:19;97478.16;;;32.13;46.42
19751;BME280;4663;49.120;9.730;2022-07-25T10:51:59;97471.97;;;32.53;44.91
19751;BME280;4663;49.120;9.730;2022-07-25T10:54:35;97466.22;;;31.91;44.96
19751;BME280;4663;49.120;9.730;2022-07-25T10:57:02;97460.38;;;31.84;44.12
19751;BME280;4663;49.120;9.730;2022-07-25T10:59:38;97477.44;;;32.87;44.00
19751;BME280;4663;49.120;9.730;2022-07-25T11:02:05;97471.41;;;32.98;43.64
19751;BME280;4663;49.120;9.730;2022-07-25T11:04:32;97460.47;;;32.55;43.35
19751;BME280;4663;49.120;9.730;2022-07-25T11:07:08;97473.72;;;32.58;44.35
19751;BME280;4663;49.120;9.730;2022-07-25T11:09:34;97469.56;;;32.89;43.42
19751;BME280;4663;49.120;9.730;2022-07-25T11:12:00;97473.63;;;32.79;44.42
19751;BME280;4663;49.120;9.730;2022-07-25T11:14:37;97463.13;;;32.05;44.11
19751;BME280;4663;49.120;9.730;2022-07-25T11:17:13;97468.84;;;32.67;43.85
19751;BME280;4663;49.120;9.730;2022-07-25T11:19:42;97447.47;;;32.25;43.36
19751;BME280;4663;49.120;9.730;2022-07-25T11:22:08;97440.53;;;31.64;43.36
19751;BME280;4663;49.120;9.730;2022-07-25T11:24:43;97438.91;;;31.63;43.98
19751;BME280;4663;49.120;9.730;2022-07-25T11:27:10;97419.34;;;30.69;43.48
19751;BME280;4663;49.120;9.730;2022-07-25T11:29:37;97438.53;;;30.61;44.75
19751;BME280;4663;49.120;9.730;2022-07-25T11:32:06;97440.00;;;30.98;44.87
19751;BME280;4663;49.120;9.730;2022-07-25T11:34:46;97438.41;;;31.18;44.72
19751;BME280;4663;49.120;9.730;2022-07-25T11:37:13;97427.50;;;31.04;44.67
19751;BME280;4663;49.120;9.730;2022-07-25T11:39:40;97433.56;;;31.06;44.91
19751;BME280;4663;49.120;9.730;2022-07-25T11:47:04;97406.88;;;31.05;43.86
19751;BME280;4663;49.120;9.730;2022-07-25T11:49:42;97416.88;;;31.27;44.38
19751;BME280;4663;49.120;9.730;2022-07-25T11:52:20;97410.13;;;31.07;43.92
19751;BME280;4663;49.120;9.730;2022-07-25T11:54:57;97419.44;;;31.54;44.16
19751;BME280;4663;49.120;9.730;2022-07-25T11:57:26;97416.66;;;31.54;43.69
19751;BME280;4663;49.120;9.730;2022-07-25T11:59:52;97415.13;;;31.65;44.30
19751;BME280;4663;49.120;9.730;2022-07-25T12:02:29;97411.50;;;31.99;43.79
19751;BME280;4663;49.120;9.730;2022-07-25T12:05:02;97421.78;;;32.19;44.76
19751;BME280;4663;49.120;9.730;2022-07-25T12:10:03;97410.88;;;32.27;43.64
19751;BME280;4663;49.120;9.730;2022-07-25T12:12:28;97404.94;;;32.41;43.71
19751;BME280;4663;49.120;9.730;2022-07-25T12:15:04;97413.47;;;32.32;44.36
19751;BME280;4663;49.120;9.730;2022-07-25T12:17:30;97390.53;;;32.51;42.80
19751;BME280;4663;49.120;9.730;2022-07-25T12:19:55;97388.72;;;32.55;43.54
19751;BME280;4663;49.120;9.730;2022-07-25T12:22:21;97397.66;;;32.36;43.79
19751;BME280;4663;49.120;9.730;2022-07-25T12:24:46;97394.97;;;32.52;44.22
19751;BME280;4663;49.120;9.730;2022-07-25T12:27:12;97403.41;;;32.18;44.22
19751;BME280;4663;49.120;9.730;2022-07-25T12:29:37;97379.91;;;31.61;43.67
19751;BME280;4663;49.120;9.730;2022-07-25T12:32:02;97396.47;;;31.57;45.02
19751;BME280;4663;49.120;9.730;2022-07-25T12:34:28;97382.59;;;31.48;44.36
19751;BME280;4663;49.120;9.730;2022-07-25T12:36:53;97391.56;;;31.75;44.41
19751;BME280;4663;49.120;9.730;2022-07-25T12:39:20;97392.94;;;32.15;44.32
19751;BME280;4663;49.120;9.730;2022-07-25T12:41:45;97397.16;;;32.34;44.29
19751;BME280;4663;49.120;9.730;2022-07-25T12:44:11;97391.84;;;32.54;44.60
19751;BME280;4663;49.120;9.730;2022-07-25T12:46:36;97367.47;;;31.37;43.70
19751;BME280;4663;49.120;9.730;2022-07-25T12:49:04;97393.31;;;31.80;44.38
19751;BME280;4663;49.120;9.730;2022-07-25T12:51:29;97378.41;;;31.63;45.02
19751;BME280;4663;49.120;9.730;2022-07-25T12:53:55;97381.53;;;31.62;45.10
19751;BME280;4663;49.120;9.730;2022-07-25T12:56:20;97399.06;;;31.41;46.78
19751;BME280;4663;49.120;9.730;2022-07-25T12:58:45;97379.56;;;31.20;45.91
19751;BME280;4663;49.120;9.730;2022-07-25T13:01:11;97370.41;;;31.40;44.86
19751;BME280;4663;49.120;9.730;2022-07-25T13:03:37;97390.03;;;31.65;45.72
19751;BME280;4663;49.120;9.730;2022-07-25T13:06:03;97397.91;;;31.42;47.14
19751;BME280;4663;49.120;9.730;2022-07-25T13:08:29;97384.00;;;31.21;46.07
19751;BME280;4663;49.120;9.730;2022-07-25T13:10:54;97406.53;;;31.28;49.08
19751;BME280;4663;49.120;9.730;2022-07-25T13:13:19;97407.75;;;31.39;50.31
19751;BME280;4663;49.120;9.730;2022-07-25T13:15:45;97386.19;;;31.15;48.74
19751;BME280;4663;49.120;9.730;2022-07-25T13:18:10;97375.34;;;30.92;47.09
19751;BME280;4663;49.120;9.730;2022-07-25T13:20:36;97377.31;;;31.34;47.30
19751;BME280;4663;49.120;9.730;2022-07-25T13:23:01;97363.44;;;31.04;46.42